createdAt,value
2019-02-05T00:01:55.046Z,100783.64
2019-02-05T00:04:26.156Z,100786.22
2019-02-05T00:06:57.208Z,100786.13
2019-02-05T00:09:28.119Z,100780.27
2019-02-05T00:11:59.431Z,100782.20
2019-02-05T00:14:30.248Z,100783.89
2019-02-05T00:17:01.165Z,100784.84
2019-02-05T00:19:32.280Z,100782.17
2019-02-05T00:22:03.248Z,100786.78
2019-02-05T00:24:34.213Z,100782.83
2019-02-05T00:27:05.161Z,100778.00
2019-02-05T00:29:36.172Z,100767.23
2019-02-05T00:32:07.146Z,100769.77
2019-02-05T00:34:38.063Z,100766.06
2019-02-05T00:37:09.059Z,100762.47
2019-02-05T00:39:40.100Z,100762.09
2019-02-05T00:42:11.038Z,100766.02
2019-02-05T00:44:42.026Z,100762.70
2019-02-05T00:47:12.423Z,100759.33
2019-02-05T00:49:43.709Z,100760.91
2019-02-05T00:52:14.574Z,100757.69
2019-02-05T00:54:45.421Z,100757.84
2019-02-05T00:57:17.154Z,100758.23
2019-02-05T00:59:49.143Z,100754.08
2019-02-05T01:02:21.285Z,100755.17
2019-02-05T01:04:52.329Z,100746.55
2019-02-05T01:07:25.290Z,100746.09
2019-02-05T01:09:56.438Z,100745.55
2019-02-05T01:12:27.396Z,100742.16
2019-02-05T01:14:58.281Z,100748.83
2019-02-05T01:17:29.442Z,100744.98
2019-02-05T01:20:00.365Z,100740.60
2019-02-05T01:22:30.798Z,100737.30
2019-02-05T01:25:01.360Z,100737.36
2019-02-05T01:27:33.408Z,100728.91
2019-02-05T01:30:07.123Z,100724.27
2019-02-05T01:32:38.497Z,100727.88
2019-02-05T01:35:11.567Z,100719.09
2019-02-05T01:37:44.623Z,100720.83
2019-02-05T01:40:17.990Z,100719.25
2019-02-05T01:42:50.413Z,100710.21
2019-02-05T01:45:21.604Z,100707.58
2019-02-05T01:47:52.919Z,100712.16
2019-02-05T01:50:26.762Z,100708.17
2019-02-05T01:52:59.622Z,100707.30
2019-02-05T01:55:30.479Z,100703.86
2019-02-05T01:58:01.847Z,100699.94
2019-02-05T02:00:35.878Z,100692.42
2019-02-05T02:03:06.750Z,100688.49
2019-02-05T02:05:39.527Z,100685.50
2019-02-05T02:08:11.523Z,100685.82
2019-02-05T02:10:43.840Z,100688.94
2019-02-05T02:13:15.721Z,100687.47
2019-02-05T02:15:46.844Z,100687.86
2019-02-05T02:18:17.614Z,100674.77
2019-02-05T02:20:48.655Z,100676.29
2019-02-05T02:23:19.681Z,100679.19
2019-02-05T02:25:50.612Z,100665.94
2019-02-05T02:28:21.876Z,100667.67
2019-02-05T02:30:52.794Z,100668.05
2019-02-05T02:33:23.768Z,100672.81
2019-02-05T02:35:56.720Z,100671.71
2019-02-05T02:38:27.803Z,100670.30
2019-02-05T02:40:58.732Z,100669.68
2019-02-05T02:43:29.870Z,100670.45
2019-02-05T02:46:00.788Z,100674.98
2019-02-05T02:48:31.179Z,100675.47
2019-02-05T02:51:02.873Z,100671.47
2019-02-05T02:53:33.811Z,100674.27
2019-02-05T02:56:06.816Z,100669.41
2019-02-05T02:58:39.836Z,100669.56
2019-02-05T03:01:11.855Z,100675.11
2019-02-05T03:03:42.924Z,100668.84
2019-02-05T03:06:13.836Z,100663.36
2019-02-05T03:08:44.996Z,100667.76
2019-02-05T03:11:15.894Z,100667.87
2019-02-05T03:13:46.864Z,100660.29
2019-02-05T03:16:19.869Z,100653.81
2019-02-05T03:18:51.028Z,100656.22
2019-02-05T03:21:21.929Z,100656.53
2019-02-05T03:23:52.899Z,100650.05
2019-02-05T03:26:23.881Z,100652.39
2019-02-05T03:28:55.052Z,100651.84
2019-02-05T03:31:25.958Z,100652.61
2019-02-05T03:33:57.046Z,100652.77
2019-02-05T03:36:27.938Z,100652.61
2019-02-05T03:38:59.818Z,100652.54
2019-02-05T03:41:30.717Z,100654.71
2019-02-05T03:44:04.058Z,100653.58
2019-02-05T03:46:35.356Z,100656.39
2019-02-05T03:49:06.243Z,100656.33
2019-02-05T03:52:18.054Z,100653.29
2019-02-05T03:55:28.785Z,100654.22
2019-02-05T03:58:43.924Z,100659.72
2019-02-05T04:02:09.053Z,100652.42
2019-02-05T04:05:25.231Z,100669.55
2019-02-05T04:08:18.892Z,100666.41
2019-02-05T04:11:31.747Z,100666.09
2019-02-05T04:15:00.779Z,100655.41
2019-02-05T04:17:46.183Z,100660.00
2019-02-05T04:20:55.317Z,100668.16
2019-02-05T04:24:05.796Z,100663.38
2019-02-05T04:27:24.315Z,100664.25
2019-02-05T04:30:42.524Z,100660.19
2019-02-05T04:33:37.973Z,100659.44
2019-02-05T04:36:52.066Z,100652.95
2019-02-05T04:39:49.829Z,100650.66
2019-02-05T04:43:03.152Z,100653.01
2019-02-05T04:46:20.218Z,100647.77
2019-02-05T04:49:25.368Z,100652.67
2019-02-05T04:52:23.927Z,100657.11
2019-02-05T04:55:12.540Z,100659.02
2019-02-05T04:58:15.293Z,100655.91
2019-02-05T05:01:33.460Z,100660.58
2019-02-05T05:04:14.624Z,100661.52
2019-02-05T05:07:22.233Z,100674.22
2019-02-05T05:09:59.010Z,100671.22
2019-02-05T05:12:31.036Z,100672.35
2019-02-05T05:15:02.382Z,100680.70
2019-02-05T05:17:34.529Z,100674.73
2019-02-05T05:20:09.155Z,100681.83
2019-02-05T05:22:40.668Z,100683.16
2019-02-05T05:25:12.300Z,100687.34
2019-02-05T05:27:43.574Z,100692.57
2019-02-05T05:30:17.869Z,100687.00
2019-02-05T05:32:48.449Z,100688.97
2019-02-05T05:35:19.518Z,100686.56
2019-02-05T05:37:50.445Z,100681.89
2019-02-05T05:40:21.057Z,100685.02
2019-02-05T05:42:52.549Z,100685.13
2019-02-05T05:45:25.511Z,100689.91
2019-02-05T05:47:57.690Z,100681.13
2019-02-05T05:50:29.543Z,100689.20
2019-02-05T05:53:00.825Z,100689.75
2019-02-05T05:55:31.334Z,100688.89
2019-02-05T05:58:05.046Z,100678.47
2019-02-05T06:00:36.562Z,100684.45
2019-02-05T06:03:08.722Z,100685.70
2019-02-05T06:05:39.609Z,100684.42
2019-02-05T06:08:11.757Z,100683.65
2019-02-05T06:10:42.514Z,100696.84
2019-02-05T06:13:13.431Z,100693.78
2019-02-05T06:15:44.515Z,100700.44
2019-02-05T06:18:15.377Z,100697.92
2019-02-05T06:20:45.795Z,100701.52
2019-02-05T06:23:16.697Z,100704.91
2019-02-05T06:25:47.934Z,100705.00
2019-02-05T06:28:18.890Z,100712.97
2019-02-05T06:30:49.729Z,100715.80
2019-02-05T06:33:23.400Z,100723.64
2019-02-05T06:35:54.815Z,100731.03
2019-02-05T06:38:27.123Z,100726.78
2019-02-05T06:41:00.049Z,100723.19
2019-02-05T06:43:30.606Z,100724.73
2019-02-05T06:46:02.932Z,100729.21
2019-02-05T06:48:33.862Z,100729.86
2019-02-05T06:51:05.366Z,100730.78
2019-02-05T06:53:36.837Z,100730.02
2019-02-05T06:56:07.356Z,100728.90
2019-02-05T06:58:46.516Z,100735.87
2019-02-05T07:01:13.039Z,100735.84
2019-02-05T07:03:43.866Z,100737.55
2019-02-05T07:06:14.868Z,100742.68
2019-02-05T07:08:45.865Z,100740.28
2019-02-05T07:11:16.996Z,100746.94
2019-02-05T07:13:47.951Z,100743.70
2019-02-05T07:16:19.549Z,100741.39
2019-02-05T07:18:49.950Z,100736.34
2019-02-05T07:21:21.098Z,100736.30
2019-02-05T07:23:54.289Z,100742.97
2019-02-05T07:26:26.231Z,100751.29
2019-02-05T07:29:00.033Z,100750.48
2019-02-05T07:31:30.094Z,100752.55
2019-02-05T07:34:01.065Z,100751.98
2019-02-05T07:36:31.487Z,100748.73
2019-02-05T07:39:04.863Z,100746.66
2019-02-05T07:41:37.409Z,100752.11
2019-02-05T07:44:08.115Z,100747.75
2019-02-05T07:46:39.118Z,100746.69
2019-02-05T07:49:10.226Z,100752.88
2019-02-05T07:51:41.169Z,100753.55
2019-02-05T07:54:12.103Z,100750.30
2019-02-05T07:56:43.259Z,100753.44
2019-02-05T07:59:16.200Z,100740.46
2019-02-05T08:01:48.114Z,100738.22
2019-02-05T08:04:21.259Z,100739.81
2019-02-05T08:06:52.149Z,100741.13
2019-02-05T08:09:23.164Z,100735.24
2019-02-05T08:11:54.232Z,100740.99
2019-02-05T08:14:25.131Z,100738.97
2019-02-05T08:16:56.528Z,100742.14
2019-02-05T08:19:27.404Z,100741.67
2019-02-05T08:21:58.274Z,100741.20
2019-02-05T08:24:30.305Z,100740.86
2019-02-05T08:27:01.610Z,100744.98
2019-02-05T08:29:34.305Z,100747.50
2019-02-05T08:32:05.244Z,100747.86
2019-02-05T08:34:36.221Z,100749.55
2019-02-05T08:37:07.237Z,100749.55
2019-02-05T08:39:38.212Z,100748.54
2019-02-05T08:42:09.282Z,100744.28
2019-02-05T08:44:40.061Z,100746.14
2019-02-05T08:47:11.202Z,100748.06
2019-02-05T08:49:42.050Z,100750.71
2019-02-05T08:52:15.594Z,100747.53
2019-02-05T08:54:46.351Z,100750.99
2019-02-05T08:57:18.462Z,100749.81
2019-02-05T08:59:49.417Z,100749.31
2019-02-05T09:02:20.382Z,100747.04
2019-02-05T09:04:53.335Z,100744.41
2019-02-05T09:07:24.436Z,100755.93
2019-02-05T09:09:55.550Z,100759.84
2019-02-05T09:12:27.569Z,100754.16
2019-02-05T09:14:58.423Z,100755.66
2019-02-05T09:17:30.742Z,100757.80
2019-02-05T09:20:03.587Z,100758.89
2019-02-05T09:22:34.434Z,100761.73
2019-02-05T09:25:08.440Z,100766.47
2019-02-05T09:27:40.829Z,100769.86
2019-02-05T09:30:20.461Z,100766.98
2019-02-05T09:32:53.718Z,100771.95
2019-02-05T09:35:25.736Z,100775.19
2019-02-05T09:37:57.884Z,100769.04
2019-02-05T09:40:30.284Z,100772.07
2019-02-05T09:43:02.529Z,100765.66
2019-02-05T09:45:33.555Z,100770.82
2019-02-05T09:48:04.533Z,100781.50
2019-02-05T09:50:44.258Z,100782.75
2019-02-05T09:53:09.679Z,100779.83
2019-02-05T09:55:40.890Z,100787.06
2019-02-05T09:58:13.614Z,100791.59
2019-02-05T10:00:44.062Z,100793.09
2019-02-05T10:03:15.050Z,100792.27
2019-02-05T10:05:47.039Z,100795.50
2019-02-05T10:08:17.782Z,100789.64
2019-02-05T10:10:48.835Z,100782.40
2019-02-05T10:13:19.299Z,100787.36
2019-02-05T10:15:50.680Z,100785.05
2019-02-05T10:18:22.194Z,100786.71
2019-02-05T10:20:53.068Z,100780.25
2019-02-05T10:23:25.776Z,100773.31
2019-02-05T10:25:56.783Z,100779.56
2019-02-05T10:28:27.903Z,100775.63
2019-02-05T10:30:58.780Z,100773.08
2019-02-05T10:33:29.832Z,100761.54
2019-02-05T10:36:01.382Z,100762.02
2019-02-05T10:38:33.962Z,100758.05
2019-02-05T10:41:06.365Z,100751.18
2019-02-05T10:43:37.033Z,100749.78
2019-02-05T10:46:09.266Z,100738.76
2019-02-05T10:48:40.085Z,100744.39
2019-02-05T10:51:12.855Z,100747.67
2019-02-05T10:53:43.817Z,100749.14
2019-02-05T10:56:14.755Z,100754.75
2019-02-05T10:58:45.694Z,100750.91
2019-02-05T11:01:16.667Z,100751.08
2019-02-05T11:03:47.139Z,100748.86
2019-02-05T11:06:20.069Z,100748.03
2019-02-05T11:08:52.061Z,100744.34
2019-02-05T11:11:23.998Z,100744.34
2019-02-05T11:13:56.094Z,100740.68
2019-02-05T11:16:28.029Z,100739.69
2019-02-05T11:18:59.030Z,100739.69
2019-02-05T11:21:30.974Z,100735.22
2019-02-05T11:24:03.517Z,100735.69
2019-02-05T11:26:36.786Z,100728.40
2019-02-05T11:29:08.129Z,100722.17
2019-02-05T11:31:40.050Z,100722.17
2019-02-05T11:34:13.081Z,100725.56
2019-02-05T11:36:44.239Z,100716.86
2019-02-05T11:39:16.353Z,100714.03
2019-02-05T11:41:48.353Z,100714.03
2019-02-05T11:44:20.224Z,100707.33
2019-02-05T11:46:51.556Z,100709.92
2019-02-05T11:49:22.296Z,100700.02
2019-02-05T11:51:53.128Z,100691.46
2019-02-05T11:54:24.279Z,100691.46
2019-02-05T11:56:55.175Z,100689.30
2019-02-05T11:59:26.144Z,100678.67
2019-02-05T12:01:57.406Z,100670.09
2019-02-05T12:04:30.323Z,100670.09
2019-02-05T12:07:04.363Z,100669.01
2019-02-05T12:09:37.389Z,100672.55
2019-02-05T12:12:09.337Z,100667.23
2019-02-05T12:14:40.369Z,100662.65
2019-02-05T12:17:13.346Z,100664.20
2019-02-05T12:19:45.784Z,100654.76
2019-02-05T12:22:16.566Z,100638.01
2019-02-05T12:24:47.295Z,100652.52
2019-02-05T12:27:20.318Z,100644.23
2019-02-05T12:29:52.615Z,100631.50
2019-02-05T12:32:23.333Z,100642.38
2019-02-05T12:34:54.387Z,100635.58
2019-02-05T12:37:25.525Z,100638.95
2019-02-05T12:39:56.343Z,100630.46
2019-02-05T12:42:29.500Z,100634.97
2019-02-05T12:45:00.419Z,100637.72
2019-02-05T12:47:30.948Z,100634.66
2019-02-05T12:50:02.429Z,100634.66
2019-02-05T12:52:34.412Z,100636.56
2019-02-05T12:55:13.269Z,100626.85
2019-02-05T12:57:37.611Z,100633.19
2019-02-05T13:00:22.041Z,100629.19
2019-02-05T13:02:54.629Z,100622.78
2019-02-05T13:05:26.570Z,100630.39
2019-02-05T13:07:57.441Z,100628.89
2019-02-05T13:10:31.041Z,100637.71
2019-02-05T13:13:02.584Z,100623.44
2019-02-05T13:15:34.538Z,100629.27
2019-02-05T13:18:04.969Z,100623.97
2019-02-05T13:20:37.846Z,100626.13
2019-02-05T13:23:10.085Z,100627.13
2019-02-05T13:25:40.507Z,100625.45
2019-02-05T13:28:13.336Z,100619.09
2019-02-05T13:30:45.619Z,100614.90
2019-02-05T13:33:17.210Z,100616.37
2019-02-05T13:35:47.575Z,100617.75
2019-02-05T13:38:18.742Z,100614.22
2019-02-05T13:40:51.316Z,100606.61
2019-02-05T13:43:23.695Z,100611.00
2019-02-05T13:45:54.721Z,100605.94
2019-02-05T13:48:25.667Z,100598.89
2019-02-05T13:50:58.658Z,100609.01
2019-02-05T13:53:29.835Z,100607.95
2019-02-05T13:56:01.769Z,100608.94
2019-02-05T13:58:34.782Z,100613.34
2019-02-05T14:01:06.724Z,100610.63
2019-02-05T14:03:37.872Z,100611.14
2019-02-05T14:06:10.845Z,100602.83
2019-02-05T14:08:42.067Z,100601.97
2019-02-05T14:11:12.818Z,100599.74
2019-02-05T14:13:43.813Z,100597.41
2019-02-05T14:16:15.068Z,100600.02
2019-02-05T14:18:54.992Z,100599.74
2019-02-05T14:21:19.858Z,100598.74
2019-02-05T14:23:50.921Z,100605.11
2019-02-05T14:26:21.853Z,100593.48
2019-02-05T14:28:54.477Z,100599.95
2019-02-05T14:31:31.488Z,100595.27
2019-02-05T14:34:00.812Z,100598.11
2019-02-05T14:36:31.663Z,100596.09
2019-02-05T14:39:04.533Z,100597.50
2019-02-05T14:41:36.991Z,100598.80
2019-02-05T14:44:07.999Z,100601.25
2019-02-05T14:46:39.930Z,100601.37
2019-02-05T14:49:12.757Z,100601.62
2019-02-05T14:51:43.123Z,100610.55
2019-02-05T14:54:14.897Z,100609.89
2019-02-05T14:56:45.695Z,100608.80
2019-02-05T14:59:16.726Z,100620.41
2019-02-05T15:01:49.297Z,100618.20
2019-02-05T15:04:22.963Z,100617.60
2019-02-05T15:06:55.322Z,100623.70
2019-02-05T15:09:27.789Z,100619.15
2019-02-05T15:12:00.089Z,100626.94
2019-02-05T15:14:30.968Z,100622.95
2019-02-05T15:17:02.148Z,100632.45
2019-02-05T15:19:34.127Z,100613.73
2019-02-05T15:22:07.284Z,100612.95
2019-02-05T15:24:41.012Z,100616.32
2019-02-05T15:27:12.170Z,100620.39
2019-02-05T15:29:43.324Z,100616.95
2019-02-05T15:32:33.570Z,100616.55
2019-02-05T15:35:06.516Z,100613.95
2019-02-05T15:37:37.209Z,100614.98
2019-02-05T15:40:09.322Z,100628.69
2019-02-05T15:42:42.295Z,100621.58
2019-02-05T15:45:14.835Z,100626.27
2019-02-05T15:47:46.178Z,100628.50
2019-02-05T15:50:18.252Z,100631.58
2019-02-05T15:52:49.274Z,100626.73
2019-02-05T15:55:21.179Z,100637.06
2019-02-05T15:57:53.895Z,100639.73
2019-02-05T16:00:24.376Z,100641.31
2019-02-05T16:02:55.613Z,100647.86
2019-02-05T16:05:26.255Z,100644.62
2019-02-05T16:07:57.397Z,100646.84
2019-02-05T16:10:28.590Z,100650.30
2019-02-05T16:13:02.716Z,100649.78
2019-02-05T16:15:31.679Z,100649.17
2019-02-05T16:18:04.903Z,100649.17
2019-02-05T16:20:35.662Z,100649.51
2019-02-05T16:23:06.512Z,100654.17
2019-02-05T16:25:37.504Z,100654.17
2019-02-05T16:28:08.434Z,100661.70
2019-02-05T16:30:39.323Z,100661.70
2019-02-05T16:33:10.474Z,100675.15
2019-02-05T16:35:41.546Z,100671.15
2019-02-05T16:38:12.686Z,100666.82
2019-02-05T16:40:43.656Z,100670.69
2019-02-05T16:43:14.461Z,100670.69
2019-02-05T16:45:45.587Z,100663.63
2019-02-05T16:48:16.427Z,100661.00
2019-02-05T16:50:47.656Z,100668.58
2019-02-05T16:53:18.527Z,100668.58
2019-02-05T16:55:49.730Z,100673.61
2019-02-05T16:58:20.489Z,100672.81
2019-02-05T17:00:51.634Z,100671.67
2019-02-05T17:03:23.617Z,100670.30
2019-02-05T17:05:56.592Z,100674.85
2019-02-05T17:08:27.515Z,100680.62
2019-02-05T17:10:58.857Z,100675.72
2019-02-05T17:13:29.756Z,100681.14
2019-02-05T17:16:02.704Z,100680.89
2019-02-05T17:18:34.528Z,100674.00
2019-02-05T17:21:07.855Z,100680.28
2019-02-05T17:23:40.631Z,100678.08
2019-02-05T17:26:12.606Z,100681.39
2019-02-05T17:28:43.680Z,100687.50
2019-02-05T17:31:14.803Z,100685.05
2019-02-05T17:33:45.984Z,100692.73
2019-02-05T17:36:16.803Z,100685.34
2019-02-05T17:38:47.822Z,100685.88
2019-02-05T17:41:18.671Z,100688.11
2019-02-05T17:43:50.431Z,100685.41
2019-02-05T17:46:23.829Z,100686.31
2019-02-05T17:48:54.877Z,100685.22
2019-02-05T17:51:25.983Z,100685.89
2019-02-05T17:53:56.850Z,100681.92
2019-02-05T17:56:27.854Z,100685.09
2019-02-05T17:58:58.802Z,100687.63
2019-02-05T18:01:29.790Z,100688.37
2019-02-05T18:04:00.952Z,100680.70
2019-02-05T18:06:31.385Z,100689.42
2019-02-05T18:09:01.837Z,100694.06
2019-02-05T18:11:34.999Z,100694.27
2019-02-05T18:14:06.943Z,100689.77
2019-02-05T18:16:38.917Z,100686.86
2019-02-05T18:19:12.484Z,100684.53
2019-02-05T18:21:43.222Z,100686.89
2019-02-05T18:24:14.945Z,100690.28
2019-02-05T18:26:46.990Z,100682.13
2019-02-05T18:29:19.023Z,100687.17
2019-02-05T18:31:49.974Z,100682.72
2019-02-05T18:34:20.983Z,100684.53
2019-02-05T18:36:51.991Z,100685.28
2019-02-05T18:39:26.036Z,100683.39
2019-02-05T18:41:56.429Z,100685.79
2019-02-05T18:44:27.635Z,100683.97
2019-02-05T18:46:58.561Z,100684.73
2019-02-05T18:49:29.120Z,100682.00
2019-02-05T18:51:59.985Z,100682.08
2019-02-05T18:54:31.220Z,100684.87
2019-02-05T18:57:02.118Z,100680.06
2019-02-05T18:59:33.049Z,100679.70
2019-02-05T19:02:04.071Z,100681.88
2019-02-05T19:04:35.033Z,100686.42
2019-02-05T19:07:06.079Z,100685.55
2019-02-05T19:09:36.923Z,100683.14
2019-02-05T19:12:07.973Z,100676.70
2019-02-05T19:14:38.921Z,100681.61
2019-02-05T19:17:09.702Z,100676.73
2019-02-05T19:19:40.660Z,100687.96
2019-02-05T19:22:11.633Z,100694.78
2019-02-05T19:25:07.320Z,100694.19
2019-02-05T19:27:40.345Z,100695.14
2019-02-05T19:30:11.786Z,100698.95
2019-02-05T19:32:43.195Z,100698.52
2019-02-05T19:35:16.323Z,100701.13
2019-02-05T19:37:47.677Z,100700.84
2019-02-05T19:40:18.246Z,100706.09
2019-02-05T19:42:49.230Z,100704.91
2019-02-05T19:45:37.728Z,100713.31
2019-02-05T19:48:13.956Z,100706.80
2019-02-05T19:50:46.309Z,100701.40
2019-02-05T19:53:18.347Z,100709.91
2019-02-05T19:55:49.781Z,100712.55
2019-02-05T19:58:21.277Z,100720.00
2019-02-05T20:00:52.388Z,100718.67
2019-02-05T20:03:23.387Z,100720.76
2019-02-05T20:05:54.635Z,100733.68
2019-02-05T20:08:26.913Z,100726.05
2019-02-05T20:10:57.283Z,100730.41
2019-02-05T20:13:39.871Z,100727.57
2019-02-05T20:16:04.521Z,100726.91
2019-02-05T20:18:35.569Z,100729.80
2019-02-05T20:21:06.602Z,100731.05
2019-02-05T20:23:39.634Z,100730.57
2019-02-05T20:26:11.638Z,100733.79
2019-02-05T20:28:46.191Z,100728.55
2019-02-05T20:31:18.388Z,100727.92
2019-02-05T20:33:50.298Z,100730.53
2019-02-05T20:36:20.732Z,100738.45
2019-02-05T20:38:51.523Z,100740.58
2019-02-05T20:41:22.493Z,100738.12
2019-02-05T20:43:53.654Z,100736.16
2019-02-05T20:46:24.540Z,100735.76
2019-02-05T20:48:55.615Z,100737.34
2019-02-05T20:51:26.540Z,100735.92
2019-02-05T20:53:57.563Z,100735.57
2019-02-05T20:56:30.927Z,100740.47
2019-02-05T20:59:01.633Z,100743.16
2019-02-05T21:01:32.027Z,100735.47
2019-02-05T21:04:03.631Z,100739.33
2019-02-05T21:06:34.751Z,100734.58
2019-02-05T21:09:15.268Z,100733.31
2019-02-05T21:11:45.698Z,100736.44
2019-02-05T21:14:16.916Z,100742.52
2019-02-05T21:16:47.763Z,100740.16
2019-02-05T21:19:18.799Z,100740.47
2019-02-05T21:21:49.731Z,100744.77
2019-02-05T21:24:20.739Z,100748.34
2019-02-05T21:26:52.832Z,100747.78
2019-02-05T21:29:24.649Z,100747.66
2019-02-05T21:31:55.716Z,100749.78
2019-02-05T21:34:26.738Z,100747.20
2019-02-05T21:36:58.710Z,100754.97
2019-02-05T21:39:29.755Z,100755.07
2019-02-05T21:42:00.955Z,100760.90
2019-02-05T21:44:31.405Z,100758.67
2019-02-05T21:47:02.895Z,100765.50
2019-02-05T21:49:34.860Z,100747.29
2019-02-05T21:52:06.874Z,100746.73
2019-02-05T21:54:37.952Z,100754.68
2019-02-05T21:57:09.157Z,100740.98
2019-02-05T21:59:40.068Z,100745.52
2019-02-05T22:02:11.205Z,100737.77
2019-02-05T22:04:41.961Z,100735.30
2019-02-05T22:07:12.876Z,100738.16
2019-02-05T22:09:43.852Z,100736.82
2019-02-05T22:12:14.639Z,100731.17
2019-02-05T22:14:45.654Z,100732.83
2019-02-05T22:17:18.408Z,100734.04
2019-02-05T22:19:50.894Z,100743.52
2019-02-05T22:22:22.056Z,100737.86
2019-02-05T22:24:55.128Z,100736.08
2019-02-05T22:27:26.022Z,100735.43
2019-02-05T22:29:56.936Z,100740.15
2019-02-05T22:32:28.064Z,100739.61
2019-02-05T22:34:59.008Z,100744.97
2019-02-05T22:37:31.702Z,100733.17
2019-02-05T22:40:05.317Z,100728.86
2019-02-05T22:42:38.109Z,100725.22
2019-02-05T22:45:12.329Z,100722.96
2019-02-05T22:47:43.314Z,100719.54
2019-02-05T22:50:22.276Z,100711.85
2019-02-05T22:52:54.278Z,100712.12
2019-02-05T22:55:25.114Z,100711.84
2019-02-05T22:57:56.173Z,100710.14
2019-02-05T23:01:06.357Z,100713.70
2019-02-05T23:03:50.653Z,100713.62
2019-02-05T23:07:15.193Z,100708.19
2019-02-05T23:09:52.443Z,100708.06
2019-02-05T23:12:33.039Z,100701.93
2019-02-05T23:15:17.498Z,100707.58
2019-02-05T23:17:48.249Z,100708.94
2019-02-05T23:20:21.407Z,100699.72
2019-02-05T23:22:53.323Z,100696.42
2019-02-05T23:25:24.292Z,100699.84
2019-02-05T23:27:55.199Z,100702.14
2019-02-05T23:30:28.105Z,100696.70
2019-02-05T23:33:00.339Z,100702.02
2019-02-05T23:35:32.757Z,100704.95
2019-02-05T23:38:05.436Z,100701.30
2019-02-05T23:40:36.220Z,100698.48
2019-02-05T23:43:07.292Z,100701.06
2019-02-05T23:45:38.435Z,100701.72
2019-02-05T23:48:11.295Z,100700.83
2019-02-05T23:50:42.479Z,100699.69
2019-02-05T23:53:13.465Z,100697.77
2019-02-05T23:55:44.513Z,100701.80
2019-02-05T23:58:15.455Z,100700.22
